Middle Spring, Pennsylvania
Current Conditions -  °F | °C
As of 10:53 PM on Saturday 22 Nov 2014 (Local Time) from KRYT Reporting Station
Overcast Overcast  
Wind Chill: 39°   Ceiling: 10000
Heat Index: 39°   Visibility: 10mi
Dew Point: 19°   Wind: 0mph
Humidity: 45%   Direction: NA
Pressure: 30.19"   Gusts: NA
Location:  40.0414°N, 77.4967°W
Report Text: KRYT 230353Z AUTO 00000KT 10SM OVC100 04/M07 A3019 RMK AO2 SLP233 T00391072 $
Loading
Personal Weather Stations






























Interactive Weather Map New forecast layout! Learn more

10-Day Weather Forecast

Advertisements
Track Severe Weather on mobile